Time;durP1;ratioP1;P1;durP2;ratioP2;P2;SDS_P1;SDS_P2;PMS_P1;PMS_P2;Temp;Humidity;BMP_temperature;BMP_pressure;BME280_temperature;BME280_humidity;BME280_pressure;Samples;Min_cycle;Max_cycle;Signal;HPM_P1;HPM_P2
2023/09/27 00:01:09;;;;;;;1.15;0.52;;;;;;;;;;4981123;28;20382;-61
2023/09/27 00:03:35;;;;;;;1.52;0.77;;;;;;;;;;4977252;28;20102;-60
2023/09/27 00:06:02;;;;;;;2.25;0.80;;;;;;;;;;4976517;28;20119;-59
2023/09/27 00:08:29;;;;;;;1.25;0.77;;;;;;;;;;4976336;28;20027;-60
2023/09/27 00:10:55;;;;;;;2.55;0.60;;;;;;;;;;4980925;28;20022;-60
2023/09/27 00:13:22;;;;;;;1.08;0.68;;;;;;;;;;4992600;28;20030;-60
2023/09/27 00:15:49;;;;;;;0.35;0.25;;;;;;;;;;4981223;28;20360;-60
2023/09/27 00:18:16;;;;;;;0.63;0.43;;;;;;;;;;4971214;28;20035;-59
2023/09/27 00:20:42;;;;;;;0.93;0.60;;;;;;;;;;4970800;28;20035;-60
2023/09/27 00:23:09;;;;;;;0.88;0.65;;;;;;;;;;4972266;28;20083;-60
2023/09/27 00:25:36;;;;;;;1.08;0.57;;;;;;;;;;4975674;28;20023;-60
2023/09/27 00:28:03;;;;;;;1.55;0.55;;;;;;;;;;4991173;28;20065;-59
2023/09/27 00:30:29;;;;;;;0.40;0.40;;;;;;;;;;4991827;28;20177;-59
2023/09/27 00:32:56;;;;;;;0.20;0.20;;;;;;;;;;4975804;28;20516;-60
2023/09/27 00:35:23;;;;;;;1.33;0.68;;;;;;;;;;4974290;28;20031;-60
2023/09/27 00:37:51;;;;;;;1.02;0.52;;;;;;;;;;4970665;28;20034;-60
2023/09/27 00:40:23;;;;;;;0.90;0.50;;;;;;;;;;4970585;28;20490;-59
2023/09/27 00:42:49;;;;;;;2.55;0.90;;;;;;;;;;4970635;28;20402;-60
2023/09/27 00:45:19;;;;;;;1.90;0.82;;;;;;;;;;4971041;28;20035;-60
2023/09/27 00:47:48;;;;;;;2.85;0.68;;;;;;;;;;4974890;28;20478;-59
2023/09/27 00:50:15;;;;;;;0.77;0.57;;;;;;;;;;4975383;28;20030;-60
2023/09/27 00:52:42;;;;;;;0.88;0.43;;;;;;;;;;4975015;28;20023;-59
2023/09/27 00:55:11;;;;;;;2.15;0.95;;;;;;;;;;4975208;28;20081;-60
2023/09/27 00:57:38;;;;;;;0.45;0.35;;;;;;;;;;4974548;28;20081;-60
2023/09/27 01:00:05;;;;;;;1.17;0.50;;;;;;;;;;4978204;28;20066;-60
2023/09/27 01:02:32;;;;;;;0.50;0.47;;;;;;;;;;4989813;28;20389;-60
2023/09/27 01:04:59;;;;;;;0.25;0.22;;;;;;;;;;4989500;28;20030;-60
2023/09/27 01:07:26;;;;;;;1.42;0.77;;;;;;;;;;4989508;28;20081;-60
2023/09/27 01:09:52;;;;;;;4.43;0.73;;;;;;;;;;4993666;28;20367;-60
2023/09/27 01:12:19;;;;;;;0.88;0.60;;;;;;;;;;4993824;28;20109;-59
2023/09/27 01:14:46;;;;;;;0.70;0.22;;;;;;;;;;4994041;28;20076;-60
2023/09/27 01:17:13;;;;;;;0.87;0.77;;;;;;;;;;4994199;28;20022;-59
2023/09/27 01:19:40;;;;;;;0.97;0.77;;;;;;;;;;4993956;28;20393;-60
2023/09/27 01:22:07;;;;;;;0.33;0.33;;;;;;;;;;4989909;28;20478;-59
2023/09/27 01:24:37;;;;;;;1.33;0.70;;;;;;;;;;4989327;28;20030;-59
2023/09/27 01:27:05;;;;;;;1.13;0.63;;;;;;;;;;4988597;28;20386;-59
2023/09/27 01:29:33;;;;;;;0.30;0.30;;;;;;;;;;4989202;28;20513;-59
2023/09/27 01:31:59;;;;;;;0.83;0.60;;;;;;;;;;4992424;28;20056;-60
2023/09/27 01:34:26;;;;;;;1.13;0.70;;;;;;;;;;4979690;28;20034;-60
2023/09/27 01:36:54;;;;;;;1.20;0.87;;;;;;;;;;4984123;28;20478;-59
2023/09/27 01:39:21;;;;;;;2.50;0.80;;;;;;;;;;4991347;28;20478;-59
2023/09/27 01:41:47;;;;;;;3.60;1.63;;;;;;;;;;4985578;28;20513;-59
2023/09/27 01:44:14;;;;;;;1.90;1.27;;;;;;;;;;4974601;28;20084;-61
2023/09/27 01:46:40;;;;;;;2.53;1.60;;;;;;;;;;4976788;28;20084;-59
2023/09/27 01:49:08;;;;;;;3.97;1.80;;;;;;;;;;4987271;28;20440;-60
2023/09/27 01:51:35;;;;;;;2.83;1.47;;;;;;;;;;4985484;28;20038;-59
2023/09/27 01:54:02;;;;;;;10.40;2.17;;;;;;;;;;4986827;28;20220;-59
2023/09/27 01:56:29;;;;;;;1.73;1.17;;;;;;;;;;4993270;28;20064;-59
2023/09/27 01:58:55;;;;;;;1.73;1.00;;;;;;;;;;4993495;28;20018;-59
2023/09/27 02:01:22;;;;;;;6.20;1.70;;;;;;;;;;4993508;28;20406;-59
2023/09/27 02:03:49;;;;;;;2.33;1.37;;;;;;;;;;4989881;28;20030;-59
2023/09/27 02:06:15;;;;;;;6.73;1.37;;;;;;;;;;4990477;28;20022;-59
2023/09/27 02:08:42;;;;;;;2.37;1.27;;;;;;;;;;4988124;28;20050;-59
2023/09/27 02:11:09;;;;;;;2.97;1.50;;;;;;;;;;4988130;28;20104;-59
2023/09/27 02:13:35;;;;;;;0.90;0.70;;;;;;;;;;4988163;28;20026;-59
2023/09/27 02:16:02;;;;;;;1.87;1.00;;;;;;;;;;4989173;28;20026;-59
2023/09/27 02:18:29;;;;;;;1.90;1.20;;;;;;;;;;4993114;28;20113;-59
2023/09/27 02:20:55;;;;;;;2.23;0.80;;;;;;;;;;4973757;28;20034;-59
2023/09/27 02:23:22;;;;;;;21.27;1.00;;;;;;;;;;4992950;28;20049;-59
2023/09/27 02:25:57;;;;;;;0.50;0.40;;;;;;;;;;4992537;28;20422;-59
2023/09/27 02:28:24;;;;;;;3.40;1.33;;;;;;;;;;4991362;28;20364;-59
2023/09/27 02:30:51;;;;;;;0.87;0.60;;;;;;;;;;4987737;28;20026;-59
2023/09/27 02:33:18;;;;;;;5.13;0.90;;;;;;;;;;4987924;28;20038;-59
2023/09/27 02:35:45;;;;;;;2.30;0.93;;;;;;;;;;4980114;28;20628;-59
2023/09/27 02:38:12;;;;;;;0.60;0.53;;;;;;;;;;4968756;28;20027;-59
2023/09/27 02:40:39;;;;;;;1.60;0.80;;;;;;;;;;4973271;28;20098;-59
2023/09/27 02:43:05;;;;;;;7.33;0.90;;;;;;;;;;4972712;28;20030;-58
2023/09/27 02:45:34;;;;;;;4.17;0.83;;;;;;;;;;4973394;28;20054;-59
2023/09/27 02:48:01;;;;;;;1.47;1.00;;;;;;;;;;4972936;28;20034;-59
2023/09/27 02:50:28;;;;;;;1.70;1.00;;;;;;;;;;4972852;28;20023;-59
2023/09/27 02:52:55;;;;;;;2.27;1.07;;;;;;;;;;4972829;28;20073;-60
2023/09/27 02:55:21;;;;;;;1.87;0.87;;;;;;;;;;4972349;28;20466;-59
2023/09/27 02:57:50;;;;;;;1.03;0.70;;;;;;;;;;4978825;28;20026;-59
2023/09/27 03:00:18;;;;;;;1.77;1.00;;;;;;;;;;4991484;28;20030;-60
2023/09/27 03:02:45;;;;;;;2.33;0.90;;;;;;;;;;4996218;28;20026;-61
2023/09/27 03:05:12;;;;;;;1.70;1.03;;;;;;;;;;4994567;28;20125;-59
2023/09/27 03:07:39;;;;;;;2.03;1.13;;;;;;;;;;4986842;28;20042;-59
2023/09/27 03:10:08;;;;;;;0.73;0.50;;;;;;;;;;4977059;28;20053;-59
2023/09/27 03:12:35;;;;;;;4.80;1.60;;;;;;;;;;4976663;28;20031;-60
2023/09/27 03:15:01;;;;;;;1.17;1.00;;;;;;;;;;4972079;28;20023;-59
2023/09/27 03:17:28;;;;;;;2.33;1.63;;;;;;;;;;4971942;28;20073;-60
2023/09/27 03:19:55;;;;;;;1.67;1.00;;;;;;;;;;4971522;28;20117;-59
2023/09/27 03:22:21;;;;;;;1.67;1.17;;;;;;;;;;4971567;28;20034;-59
2023/09/27 03:24:48;;;;;;;2.63;1.27;;;;;;;;;;4975493;28;20027;-59
2023/09/27 03:27:15;;;;;;;2.57;1.20;;;;;;;;;;4978892;28;20084;-59
2023/09/27 03:29:42;;;;;;;1.20;0.90;;;;;;;;;;4996113;28;20070;-59
2023/09/27 03:32:09;;;;;;;0.73;0.60;;;;;;;;;;4996009;28;20030;-59
2023/09/27 03:34:36;;;;;;;4.30;1.70;;;;;;;;;;4996062;28;20030;-59
2023/09/27 03:37:02;;;;;;;4.13;0.93;;;;;;;;;;4984327;28;20032;-60
2023/09/27 03:39:29;;;;;;;1.00;0.73;;;;;;;;;;4985663;28;20108;-59
2023/09/27 03:41:56;;;;;;;2.57;1.10;;;;;;;;;;4984753;28;20168;-59
2023/09/27 03:44:23;;;;;;;2.40;0.83;;;;;;;;;;4991084;28;20060;-60
2023/09/27 03:46:50;;;;;;;0.67;0.60;;;;;;;;;;4993262;28;20031;-59
2023/09/27 03:49:17;;;;;;;5.80;1.53;;;;;;;;;;4995949;28;20050;-59
2023/09/27 03:51:44;;;;;;;12.87;1.33;;;;;;;;;;4995891;28;20041;-59
2023/09/27 03:54:10;;;;;;;1.63;1.13;;;;;;;;;;4995325;28;20026;-59
2023/09/27 03:56:37;;;;;;;0.93;0.77;;;;;;;;;;4984463;28;20109;-59
2023/09/27 03:59:04;;;;;;;3.33;1.57;;;;;;;;;;4975436;28;20423;-59
2023/09/27 04:01:31;;;;;;;2.60;1.57;;;;;;;;;;4972331;28;20035;-59
2023/09/27 04:03:58;;;;;;;0.77;0.60;;;;;;;;;;4986659;28;20026;-59
2023/09/27 04:06:24;;;;;;;7.67;1.40;;;;;;;;;;4988706;28;20389;-59
2023/09/27 04:08:52;;;;;;;4.30;1.17;;;;;;;;;;4990588;28;20030;-59
2023/09/27 04:11:18;;;;;;;3.73;1.40;;;;;;;;;;4995117;28;20041;-59
2023/09/27 04:13:45;;;;;;;1.67;0.93;;;;;;;;;;4995285;28;20026;-59
2023/09/27 04:16:12;;;;;;;1.13;0.63;;;;;;;;;;4995263;28;20022;-59
2023/09/27 04:18:38;;;;;;;5.17;1.30;;;;;;;;;;4993590;28;20033;-59
2023/09/27 04:21:06;;;;;;;1.93;1.30;;;;;;;;;;4991509;28;20041;-59
2023/09/27 04:23:33;;;;;;;0.93;0.63;;;;;;;;;;4990424;28;20029;-59
2023/09/27 04:26:05;;;;;;;2.00;1.07;;;;;;;;;;4990592;28;20050;-59
2023/09/27 04:28:32;;;;;;;1.73;1.07;;;;;;;;;;4990221;28;20045;-59
2023/09/27 04:30:58;;;;;;;0.60;0.50;;;;;;;;;;4985181;28;20080;-59
2023/09/27 04:33:25;;;;;;;3.23;1.43;;;;;;;;;;4975550;28;20027;-59
2023/09/27 04:35:51;;;;;;;1.57;1.03;;;;;;;;;;4975381;28;20023;-59
2023/09/27 04:38:18;;;;;;;1.30;0.97;;;;;;;;;;4981768;28;20023;-58
2023/09/27 04:40:46;;;;;;;1.83;0.90;;;;;;;;;;4975210;28;20023;-59
2023/09/27 04:43:13;;;;;;;1.80;1.10;;;;;;;;;;4974660;28;20141;-60
2023/09/27 04:45:40;;;;;;;1.47;0.80;;;;;;;;;;4970467;28;20011;-59
2023/09/27 04:48:06;;;;;;;2.10;1.23;;;;;;;;;;4970466;28;20088;-59
2023/09/27 04:50:34;;;;;;;1.07;0.80;;;;;;;;;;4969992;28;20035;-59
2023/09/27 04:53:01;;;;;;;0.60;0.60;;;;;;;;;;4970113;28;20039;-59
2023/09/27 04:55:28;;;;;;;1.33;0.93;;;;;;;;;;4974660;28;20034;-59
2023/09/27 04:57:54;;;;;;;2.20;1.30;;;;;;;;;;4974804;28;20391;-59
2023/09/27 05:00:22;;;;;;;1.47;0.93;;;;;;;;;;4992171;28;20030;-59
2023/09/27 05:02:49;;;;;;;3.40;1.83;;;;;;;;;;4994158;28;20176;-58
2023/09/27 05:05:16;;;;;;;1.30;0.87;;;;;;;;;;4994151;28;20022;-59
2023/09/27 05:07:43;;;;;;;1.83;1.10;;;;;;;;;;4989480;28;20045;-60
2023/09/27 05:10:10;;;;;;;2.03;1.20;;;;;;;;;;4972619;28;20030;-59
2023/09/27 05:12:38;;;;;;;5.27;0.90;;;;;;;;;;4980566;28;20041;-60
2023/09/27 05:15:05;;;;;;;5.80;1.17;;;;;;;;;;4988328;28;20345;-60
2023/09/27 05:17:32;;;;;;;1.13;0.80;;;;;;;;;;4992630;28;20026;-60
2023/09/27 05:19:58;;;;;;;0.43;0.40;;;;;;;;;;4980875;28;20421;-59
2023/09/27 05:22:25;;;;;;;0.63;0.47;;;;;;;;;;4975260;28;20113;-59
2023/09/27 05:24:52;;;;;;;6.10;1.37;;;;;;;;;;4974338;28;20023;-59
2023/09/27 05:27:19;;;;;;;3.03;0.67;;;;;;;;;;4974325;28;20481;-59
2023/09/27 05:29:46;;;;;;;1.30;1.00;;;;;;;;;;4971227;28;20106;-59
2023/09/27 05:32:13;;;;;;;1.13;0.87;;;;;;;;;;4973471;28;20076;-59
2023/09/27 05:34:40;;;;;;;3.60;1.63;;;;;;;;;;4989036;28;20030;-59
2023/09/27 05:37:07;;;;;;;3.07;1.17;;;;;;;;;;4986810;28;20026;-59
2023/09/27 05:39:33;;;;;;;0.87;0.80;;;;;;;;;;4989580;28;20512;-59
2023/09/27 05:42:00;;;;;;;1.10;0.73;;;;;;;;;;4989574;28;20092;-59
2023/09/27 05:44:27;;;;;;;2.10;1.30;;;;;;;;;;4972826;28;20055;-60
2023/09/27 05:46:53;;;;;;;0.73;0.47;;;;;;;;;;4972841;28;20523;-59
2023/09/27 05:49:20;;;;;;;2.23;1.17;;;;;;;;;;4972665;28;20065;-59
2023/09/27 05:51:47;;;;;;;2.10;1.30;;;;;;;;;;4970273;28;20038;-60
2023/09/27 05:54:14;;;;;;;1.40;1.07;;;;;;;;;;4987166;28;20054;-59
2023/09/27 05:56:43;;;;;;;1.50;0.90;;;;;;;;;;4986905;28;20037;-59
2023/09/27 05:59:12;;;;;;;0.93;0.57;;;;;;;;;;4986946;28;20034;-59
2023/09/27 06:01:39;;;;;;;2.10;1.00;;;;;;;;;;4988061;28;20054;-60
2023/09/27 06:04:06;;;;;;;0.77;0.63;;;;;;;;;;4972607;28;20035;-59
2023/09/27 06:06:33;;;;;;;0.77;0.77;;;;;;;;;;4972125;28;20042;-59
2023/09/27 06:08:59;;;;;;;1.70;1.13;;;;;;;;;;4972472;28;20035;-59
2023/09/27 06:11:26;;;;;;;0.50;0.50;;;;;;;;;;4972456;28;20470;-60
2023/09/27 06:13:53;;;;;;;0.97;0.73;;;;;;;;;;4987362;28;20026;-59
2023/09/27 06:16:19;;;;;;;3.07;1.53;;;;;;;;;;4986309;28;20230;-60
2023/09/27 06:18:46;;;;;;;2.03;1.23;;;;;;;;;;4986645;28;20023;-59
2023/09/27 06:21:13;;;;;;;2.53;1.10;;;;;;;;;;4986707;28;20669;-59
2023/09/27 06:23:40;;;;;;;1.57;0.80;;;;;;;;;;4971918;28;20041;-60
2023/09/27 06:26:07;;;;;;;0.97;0.70;;;;;;;;;;4986237;28;20045;-59
2023/09/27 06:28:37;;;;;;;2.93;1.20;;;;;;;;;;4991058;28;20037;-59
2023/09/27 06:31:06;;;;;;;1.43;0.97;;;;;;;;;;4991480;28;20026;-59
2023/09/27 06:33:39;;;;;;;0.87;0.77;;;;;;;;;;4990927;28;20493;-59
2023/09/27 06:36:08;;;;;;;1.27;1.00;;;;;;;;;;4976291;28;20485;-59
2023/09/27 06:38:35;;;;;;;2.47;1.37;;;;;;;;;;4967024;28;20043;-59
2023/09/27 06:41:02;;;;;;;1.90;0.80;;;;;;;;;;4966930;28;20027;-59
2023/09/27 06:43:31;;;;;;;1.80;0.90;;;;;;;;;;4967274;28;20052;-59
2023/09/27 06:46:01;;;;;;;1.07;0.90;;;;;;;;;;4979690;28;20042;-59
2023/09/27 06:48:28;;;;;;;1.27;1.00;;;;;;;;;;4992438;28;20027;-59
2023/09/27 06:50:54;;;;;;;1.00;0.80;;;;;;;;;;4992539;28;20037;-59
2023/09/27 06:53:21;;;;;;;0.70;0.60;;;;;;;;;;4992644;28;20040;-59
2023/09/27 06:55:49;;;;;;;3.13;1.30;;;;;;;;;;4982225;28;20042;-59
2023/09/27 06:58:22;;;;;;;2.13;0.97;;;;;;;;;;4973021;28;20398;-59
2023/09/27 07:00:51;;;;;;;1.47;0.43;;;;;;;;;;4967845;28;20093;-60
2023/09/27 07:03:19;;;;;;;5.47;1.00;;;;;;;;;;4968081;28;20058;-59
2023/09/27 07:05:47;;;;;;;1.33;1.03;;;;;;;;;;4968619;28;20041;-60
2023/09/27 07:08:14;;;;;;;1.40;0.93;;;;;;;;;;4967808;28;20094;-59
2023/09/27 07:10:41;;;;;;;0.93;0.77;;;;;;;;;;4972956;28;20030;-59
2023/09/27 07:13:08;;;;;;;2.30;0.93;;;;;;;;;;4973048;28;20089;-59
2023/09/27 07:15:34;;;;;;;2.50;1.50;;;;;;;;;;4980852;28;20034;-59
2023/09/27 07:18:03;;;;;;;1.90;1.33;;;;;;;;;;4992555;28;20077;-59
2023/09/27 07:20:34;;;;;;;2.00;0.80;;;;;;;;;;4992366;28;20041;-59
2023/09/27 07:23:05;;;;;;;1.37;1.00;;;;;;;;;;4986955;28;20070;-60
2023/09/27 07:25:37;;;;;;;1.53;0.90;;;;;;;;;;4979414;28;20433;-59
2023/09/27 07:28:05;;;;;;;1.33;0.80;;;;;;;;;;4967911;28;20049;-59
2023/09/27 07:30:33;;;;;;;0.70;0.60;;;;;;;;;;4967951;28;20453;-59
2023/09/27 07:33:03;;;;;;;0.70;0.50;;;;;;;;;;4972295;28;20027;-59
2023/09/27 07:35:33;;;;;;;2.00;1.00;;;;;;;;;;4979617;28;20030;-59
2023/09/27 07:38:00;;;;;;;1.60;0.93;;;;;;;;;;4992662;28;20031;-59
2023/09/27 07:40:28;;;;;;;2.13;0.97;;;;;;;;;;4995896;28;20053;-59
2023/09/27 07:42:54;;;;;;;0.97;0.77;;;;;;;;;;4995861;28;20023;-59
2023/09/27 07:45:21;;;;;;;1.43;0.90;;;;;;;;;;4985157;28;20037;-59
2023/09/27 07:47:51;;;;;;;1.50;0.97;;;;;;;;;;4971235;28;20041;-59
2023/09/27 07:50:18;;;;;;;1.03;0.57;;;;;;;;;;4971381;28;20027;-59
2023/09/27 07:52:46;;;;;;;0.33;0.30;;;;;;;;;;4971135;28;20023;-59
2023/09/27 07:55:14;;;;;;;3.73;1.13;;;;;;;;;;4978887;28;20041;-59
2023/09/27 07:57:45;;;;;;;1.33;1.03;;;;;;;;;;4995553;28;20026;-59
2023/09/27 08:00:15;;;;;;;1.07;0.70;;;;;;;;;;4995196;28;20045;-59
2023/09/27 08:02:45;;;;;;;0.70;0.70;;;;;;;;;;4995571;28;20037;-59
2023/09/27 08:05:14;;;;;;;0.70;0.50;;;;;;;;;;4991345;28;20027;-59
2023/09/27 08:07:41;;;;;;;1.00;0.90;;;;;;;;;;4971263;28;20053;-60
2023/09/27 08:10:10;;;;;;;0.90;0.50;;;;;;;;;;4970771;28;20023;-59
2023/09/27 08:12:38;;;;;;;1.10;0.90;;;;;;;;;;4970976;28;20482;-59
2023/09/27 08:15:06;;;;;;;2.27;1.23;;;;;;;;;;4973275;28;20102;-59
2023/09/27 08:17:33;;;;;;;2.93;0.77;;;;;;;;;;4993612;28;20513;-59
2023/09/27 08:20:12;;;;;;;2.03;1.23;;;;;;;;;;4995313;28;20018;-59
2023/09/27 08:22:39;;;;;;;1.73;0.90;;;;;;;;;;4995085;28;20509;-59
2023/09/27 08:25:09;;;;;;;12.37;1.30;;;;;;;;;;4991867;28;20101;-59
2023/09/27 08:27:36;;;;;;;0.77;0.63;;;;;;;;;;4975686;28;20053;-59
2023/09/27 08:30:05;;;;;;;0.93;0.73;;;;;;;;;;4971222;28;20037;-59
2023/09/27 08:32:33;;;;;;;1.50;1.00;;;;;;;;;;4970435;28;20093;-59
2023/09/27 08:35:00;;;;;;;1.60;0.93;;;;;;;;;;4971481;28;20548;-59
2023/09/27 08:37:27;;;;;;;1.60;1.10;;;;;;;;;;4989772;28;20030;-59
2023/09/27 08:39:55;;;;;;;1.77;0.73;;;;;;;;;;4984425;28;20037;-59
2023/09/27 08:42:25;;;;;;;3.33;1.07;;;;;;;;;;4975266;28;20097;-59
2023/09/27 08:44:55;;;;;;;0.83;0.63;;;;;;;;;;4975437;28;20036;-59
2023/09/27 08:47:23;;;;;;;0.53;0.50;;;;;;;;;;4975275;28;20038;-59
2023/09/27 08:49:51;;;;;;;2.23;1.33;;;;;;;;;;4981628;28;20022;-59
2023/09/27 08:52:18;;;;;;;1.23;1.03;;;;;;;;;;4973304;28;20375;-59
2023/09/27 08:54:44;;;;;;;1.07;0.97;;;;;;;;;;4989345;28;20355;-59
2023/09/27 08:57:12;;;;;;;3.73;1.77;;;;;;;;;;4989134;28;20152;-58
2023/09/27 08:59:40;;;;;;;3.40;0.80;;;;;;;;;;4984041;28;20556;-60
2023/09/27 09:02:08;;;;;;;0.67;0.63;;;;;;;;;;4986892;28;20084;-59
2023/09/27 09:04:34;;;;;;;0.77;0.57;;;;;;;;;;4994070;28;20037;-59
2023/09/27 09:07:06;;;;;;;1.80;0.80;;;;;;;;;;4994145;28;20382;-59
2023/09/27 09:09:33;;;;;;;1.30;1.00;;;;;;;;;;4994133;28;20027;-59
2023/09/27 09:12:08;;;;;;;1.10;0.77;;;;;;;;;;4984295;28;20482;-59
2023/09/27 09:14:49;;;;;;;2.70;1.33;;;;;;;;;;4971566;28;20026;-60
2023/09/27 09:17:21;;;;;;;1.03;0.70;;;;;;;;;;4969707;28;20030;-59
2023/09/27 09:20:17;;;;;;;0.60;0.60;;;;;;;;;;4969715;28;20089;-59
2023/09/27 09:22:43;;;;;;;;;;;;;;;;;;4974679;28;20128;-59
2023/09/27 09:25:10;;;;;;;3.30;1.43;;;;;;;;;;4992972;28;19913;-59
2023/09/27 09:27:37;;;;;;;2.07;0.90;;;;;;;;;;4993985;28;20104;-58
2023/09/27 09:30:09;;;;;;;1.17;0.80;;;;;;;;;;4993959;28;20041;-59
2023/09/27 09:32:49;;;;;;;1.83;1.30;;;;;;;;;;4990731;28;20092;-59
2023/09/27 09:35:30;;;;;;;1.40;1.20;;;;;;;;;;4974462;28;20441;-58
2023/09/27 09:37:57;;;;;;;1.17;0.83;;;;;;;;;;4969197;28;20474;-58
2023/09/27 09:40:24;;;;;;;1.00;0.80;;;;;;;;;;4969321;28;20478;-59
2023/09/27 09:42:51;;;;;;;1.53;1.10;;;;;;;;;;4973427;28;20105;-59
2023/09/27 09:45:19;;;;;;;1.37;0.90;;;;;;;;;;4988615;28;20408;-59
2023/09/27 09:47:46;;;;;;;0.73;0.63;;;;;;;;;;4992774;28;20038;-58
2023/09/27 09:50:16;;;;;;;1.77;1.07;;;;;;;;;;4993579;28;20018;-59
2023/09/27 09:52:53;;;;;;;0.83;0.77;;;;;;;;;;4990140;28;20081;-58
2023/09/27 09:55:24;;;;;;;0.43;0.43;;;;;;;;;;4973987;28;20433;-58
2023/09/27 09:58:06;;;;;;;4.73;1.63;;;;;;;;;;4973888;28;20505;-58
2023/09/27 10:00:35;;;;;;;1.37;1.10;;;;;;;;;;4968280;28;20085;-59
2023/09/27 10:03:04;;;;;;;1.33;0.80;;;;;;;;;;4973728;28;20105;-59
2023/09/27 10:05:38;;;;;;;1.07;0.83;;;;;;;;;;4988506;28;20042;-59
2023/09/27 10:08:06;;;;;;;0.68;0.68;;;;;;;;;;4988154;28;20042;-59
2023/09/27 10:10:33;;;;;;;0.93;0.67;;;;;;;;;;4993189;28;20026;-59
2023/09/27 10:13:00;;;;;;;0.93;0.77;;;;;;;;;;4988245;28;20113;-59
2023/09/27 10:15:27;;;;;;;1.00;0.77;;;;;;;;;;4973719;28;20053;-58
2023/09/27 10:17:55;;;;;;;0.63;0.57;;;;;;;;;;4973466;28;20018;-59
2023/09/27 10:20:22;;;;;;;0.63;0.63;;;;;;;;;;4973428;28;20039;-59
2023/09/27 10:22:49;;;;;;;0.23;0.23;;;;;;;;;;4971197;28;20393;-59
2023/09/27 10:25:32;;;;;;;2.07;1.20;;;;;;;;;;4987941;28;20023;-59
2023/09/27 10:28:02;;;;;;;0.40;0.40;;;;;;;;;;4987771;28;20165;-59
2023/09/27 10:30:48;;;;;;;1.73;1.13;;;;;;;;;;4987905;28;20038;-59
2023/09/27 10:33:19;;;;;;;0.80;0.63;;;;;;;;;;4986461;28;20482;-59
2023/09/27 10:36:02;;;;;;;1.07;0.87;;;;;;;;;;4973299;28;20034;-59
2023/09/27 10:38:45;;;;;;;1.30;0.80;;;;;;;;;;4973463;28;20035;-58
2023/09/27 10:41:46;;;;;;;1.38;1.00;;;;;;;;;;4973328;28;20051;-59
2023/09/27 10:44:14;;;;;;;0.80;0.70;;;;;;;;;;4941205;28;20053;-58
2023/09/27 10:46:45;;;;;;;1.20;0.77;;;;;;;;;;4987739;28;20413;-59
2023/09/27 10:49:13;;;;;;;1.07;0.50;;;;;;;;;;4987710;28;20039;-59
2023/09/27 10:51:40;;;;;;;5.60;0.77;;;;;;;;;;4987491;28;20501;-58
2023/09/27 10:54:08;;;;;;;0.83;0.70;;;;;;;;;;4987760;28;20037;-59
2023/09/27 10:56:35;;;;;;;1.30;0.93;;;;;;;;;;4990302;28;20034;-58
2023/09/27 10:59:02;;;;;;;0.63;0.50;;;;;;;;;;4992620;28;20042;-59
2023/09/27 11:01:29;;;;;;;0.40;0.40;;;;;;;;;;4992505;28;20046;-59
2023/09/27 11:04:02;;;;;;;1.53;0.90;;;;;;;;;;4990712;28;20041;-58
2023/09/27 11:06:31;;;;;;;0.93;0.60;;;;;;;;;;4989404;28;20031;-59
2023/09/27 11:09:05;;;;;;;2.03;1.07;;;;;;;;;;4987137;28;20038;-58
2023/09/27 11:11:31;;;;;;;1.33;0.90;;;;;;;;;;4986998;28;20038;-59
2023/09/27 11:13:58;;;;;;;0.63;0.60;;;;;;;;;;4982284;28;20037;-58
2023/09/27 11:16:25;;;;;;;0.80;0.70;;;;;;;;;;4974127;28;20431;-58
2023/09/27 11:18:52;;;;;;;1.37;0.70;;;;;;;;;;4976840;28;20097;-59
2023/09/27 11:21:19;;;;;;;0.93;0.60;;;;;;;;;;4976915;28;20516;-59
2023/09/27 11:23:59;;;;;;;1.10;0.87;;;;;;;;;;4981095;28;20022;-59
2023/09/27 11:26:27;;;;;;;1.07;0.70;;;;;;;;;;4995772;28;20470;-58
2023/09/27 11:29:07;;;;;;;2.10;0.73;;;;;;;;;;4993682;28;20563;-59
2023/09/27 11:31:34;;;;;;;1.20;0.73;;;;;;;;;;4991092;28;20030;-59
2023/09/27 11:34:14;;;;;;;1.13;0.73;;;;;;;;;;4983795;28;20423;-59
2023/09/27 11:37:01;;;;;;;6.93;1.20;;;;;;;;;;4971162;28;20019;-58
2023/09/27 11:39:28;;;;;;;1.23;0.77;;;;;;;;;;4974737;28;20089;-58
2023/09/27 11:41:59;;;;;;;0.87;0.57;;;;;;;;;;4976770;28;20038;-58
2023/09/27 11:44:26;;;;;;;1.90;0.87;;;;;;;;;;4986039;28;20085;-58
2023/09/27 11:47:07;;;;;;;2.17;1.10;;;;;;;;;;4995756;28;20038;-59
2023/09/27 11:49:34;;;;;;;0.67;0.60;;;;;;;;;;4995692;28;20433;-59
2023/09/27 11:52:11;;;;;;;0.80;0.57;;;;;;;;;;4991416;28;20089;-58
2023/09/27 11:54:45;;;;;;;0.73;0.57;;;;;;;;;;4979494;28;20034;-58
2023/09/27 11:57:12;;;;;;;0.60;0.43;;;;;;;;;;4971023;28;20058;-58
2023/09/27 11:59:39;;;;;;;2.00;0.73;;;;;;;;;;4970622;28;20102;-58
2023/09/27 12:02:08;;;;;;;0.97;0.70;;;;;;;;;;4974760;28;20031;-58
2023/09/27 12:04:35;;;;;;;6.20;0.67;;;;;;;;;;4986223;28;20100;-59
2023/09/27 12:07:02;;;;;;;1.47;0.53;;;;;;;;;;4978151;28;20039;-58
2023/09/27 12:09:31;;;;;;;3.23;1.23;;;;;;;;;;4975815;28;20383;-58
2023/09/27 12:11:57;;;;;;;2.57;1.17;;;;;;;;;;4976046;28;20059;-59
2023/09/27 12:14:24;;;;;;;0.93;0.53;;;;;;;;;;4971680;28;20224;-58
2023/09/27 12:16:51;;;;;;;1.67;1.00;;;;;;;;;;4984553;28;20034;-58
2023/09/27 12:19:17;;;;;;;2.07;1.10;;;;;;;;;;4990232;28;20412;-58
2023/09/27 12:21:44;;;;;;;0.40;0.40;;;;;;;;;;4975304;28;20394;-59
2023/09/27 12:24:11;;;;;;;0.47;0.47;;;;;;;;;;4973082;28;20034;-58
2023/09/27 12:26:37;;;;;;;1.53;0.90;;;;;;;;;;4975512;28;20213;-58
2023/09/27 12:29:04;;;;;;;0.40;0.30;;;;;;;;;;4975587;28;20061;-58
2023/09/27 12:31:31;;;;;;;0.90;0.60;;;;;;;;;;4987334;28;20022;-58
2023/09/27 12:33:57;;;;;;;0.50;0.50;;;;;;;;;;4995144;28;20027;-58
2023/09/27 12:36:24;;;;;;;0.83;0.57;;;;;;;;;;4991324;28;20470;-59
2023/09/27 12:38:51;;;;;;;3.80;0.67;;;;;;;;;;4989992;28;20473;-59
2023/09/27 12:41:18;;;;;;;1.50;0.73;;;;;;;;;;4979364;28;20040;-58
2023/09/27 12:43:45;;;;;;;1.30;0.53;;;;;;;;;;4970389;28;20031;-58
2023/09/27 12:46:13;;;;;;;0.30;0.30;;;;;;;;;;4972518;28;20112;-58
2023/09/27 12:48:40;;;;;;;7.93;0.87;;;;;;;;;;4975274;28;20165;-59
2023/09/27 12:51:07;;;;;;;1.03;0.40;;;;;;;;;;4982820;28;20152;-58
2023/09/27 12:53:34;;;;;;;0.63;0.57;;;;;;;;;;4994011;28;20477;-58
2023/09/27 12:56:01;;;;;;;1.47;0.73;;;;;;;;;;4994703;28;20026;-58
2023/09/27 12:58:28;;;;;;;0.50;0.40;;;;;;;;;;4991862;28;20477;-58
2023/09/27 13:00:55;;;;;;;1.00;0.80;;;;;;;;;;4983279;28;20057;-58
2023/09/27 13:03:22;;;;;;;3.80;1.47;;;;;;;;;;4970055;28;20106;-58
2023/09/27 13:05:49;;;;;;;1.33;1.00;;;;;;;;;;4969910;28;20039;-59
2023/09/27 13:08:15;;;;;;;1.20;0.93;;;;;;;;;;4971391;28;20588;-58
2023/09/27 13:10:42;;;;;;;1.50;1.10;;;;;;;;;;4978141;28;20473;-58
2023/09/27 13:13:09;;;;;;;1.57;1.07;;;;;;;;;;4994202;28;20031;-58
2023/09/27 13:15:36;;;;;;;1.37;1.03;;;;;;;;;;4994063;28;20465;-58
2023/09/27 13:18:03;;;;;;;0.80;0.80;;;;;;;;;;4994342;28;20093;-59
2023/09/27 13:20:31;;;;;;;2.30;0.90;;;;;;;;;;4990249;28;20018;-59
2023/09/27 13:23:01;;;;;;;6.50;1.97;;;;;;;;;;4969605;28;20058;-59
2023/09/27 13:25:28;;;;;;;1.47;0.93;;;;;;;;;;4969560;28;20502;-58
2023/09/27 13:27:55;;;;;;;1.40;0.93;;;;;;;;;;4969002;28;20043;-58
2023/09/27 13:30:22;;;;;;;1.53;0.93;;;;;;;;;;4972320;28;20022;-59
2023/09/27 13:32:48;;;;;;;2.90;1.40;;;;;;;;;;4993689;28;20113;-59
2023/09/27 13:35:15;;;;;;;3.03;1.47;;;;;;;;;;4993613;28;20114;-58
2023/09/27 13:37:42;;;;;;;1.50;1.03;;;;;;;;;;4978483;28;20474;-59
2023/09/27 13:40:12;;;;;;;1.00;0.83;;;;;;;;;;4974461;28;20030;-59
2023/09/27 13:42:42;;;;;;;10.37;1.33;;;;;;;;;;4973179;28;20023;-59
2023/09/27 13:45:15;;;;;;;1.63;1.10;;;;;;;;;;4970697;28;20061;-58
2023/09/27 13:47:41;;;;;;;1.70;0.97;;;;;;;;;;4988588;28;20042;-59
2023/09/27 13:50:09;;;;;;;0.97;0.77;;;;;;;;;;4988358;28;20109;-59
2023/09/27 13:52:36;;;;;;;0.97;0.80;;;;;;;;;;4974816;28;20393;-59
2023/09/27 13:55:03;;;;;;;3.80;1.73;;;;;;;;;;4974053;28;20046;-59
2023/09/27 13:57:31;;;;;;;0.97;0.87;;;;;;;;;;4974049;28;20386;-59
2023/09/27 13:59:58;;;;;;;1.80;1.10;;;;;;;;;;4973738;28;20031;-59
2023/09/27 14:02:25;;;;;;;2.13;0.80;;;;;;;;;;4976598;28;20019;-59
2023/09/27 14:04:53;;;;;;;7.03;1.23;;;;;;;;;;4974491;28;20027;-59
2023/09/27 14:07:20;;;;;;;0.93;0.80;;;;;;;;;;4968574;28;20047;-59
2023/09/27 14:09:48;;;;;;;0.70;0.57;;;;;;;;;;4975001;28;20049;-60
2023/09/27 14:12:15;;;;;;;1.60;1.03;;;;;;;;;;4986507;28;20436;-59
2023/09/27 14:14:42;;;;;;;3.87;0.73;;;;;;;;;;4988124;28;20026;-59
2023/09/27 14:17:09;;;;;;;2.83;0.90;;;;;;;;;;4993012;28;20034;-59
2023/09/27 14:19:35;;;;;;;1.77;1.20;;;;;;;;;;4982661;28;20052;-59
2023/09/27 14:22:02;;;;;;;2.53;1.03;;;;;;;;;;4981013;28;20027;-59
2023/09/27 14:24:31;;;;;;;0.70;0.57;;;;;;;;;;4973420;28;20041;-59
2023/09/27 14:26:58;;;;;;;0.93;0.77;;;;;;;;;;4979854;28;20240;-59
2023/09/27 14:29:24;;;;;;;1.97;0.90;;;;;;;;;;4975968;28;20030;-60
2023/09/27 14:31:51;;;;;;;1.27;1.03;;;;;;;;;;4968674;28;20105;-60
2023/09/27 14:34:18;;;;;;;0.90;0.80;;;;;;;;;;4968467;28;20441;-60
2023/09/27 14:36:44;;;;;;;9.10;1.37;;;;;;;;;;4967850;28;20093;-60
2023/09/27 14:39:14;;;;;;;1.33;0.73;;;;;;;;;;4972514;28;20093;-59
2023/09/27 14:41:43;;;;;;;1.03;0.80;;;;;;;;;;4989404;28;20030;-59
2023/09/27 14:44:10;;;;;;;4.13;1.50;;;;;;;;;;4980175;28;20039;-60
2023/09/27 14:46:37;;;;;;;4.60;1.40;;;;;;;;;;4973126;28;20033;-59
2023/09/27 14:49:05;;;;;;;16.27;1.40;;;;;;;;;;4984981;28;20109;-59